Big Bear Station Historical Data
Daily Summary for August 11, 2017 Units:  English    Metric   Both
« Previous Day
Next Day »
Daily Weekly Monthly Yearly Custom
  High: Low: Average:
Temperature: 84.6 °F 55.2 °F 68.1 °F
Dew Point: 57.1 °F 47.3 °F 52.7 °F
Humidity: 85 % 38 % 60 %
Wind Speed: 7.8 mph 0.0 mph 1.7 mph
Wind Gust: -999.0 mph - -
Wind:- - WSW
Pressure: 30.28 in 30.22 in -
Precipitation: 0.00 in    
Historical Graphs
 
 
Tabular Data for August 11, 2017
Time Temperature Dew Point Pressure Wind Wind Speed Wind Gust Humidity Rainfall Rate (Hourly)
00:08 62.8 °F 47.3 °F 30.27 in SSW 2.2 mph -999.0 mph 57 % 0 in
00:23 62.8 °F 47.3 °F 30.26 in South 2.7 mph -999.0 mph 57 % 0 in
00:38 63.1 °F 47.6 °F 30.26 in South 1.7 mph -999.0 mph 57 % 0 in
00:53 62.2 °F 47.7 °F 30.26 in Calm   -999.0 mph 59 % 0 in
01:09 61.7 °F 48.5 °F 30.26 in SSE 1.7 mph -999.0 mph 62 % 0 in
01:24 60.8 °F 48.1 °F 30.26 in South 1.1 mph -999.0 mph 63 % 0 in
01:39 60.4 °F 49.0 °F 30.26 in Calm   -999.0 mph 66 % 0 in
01:54 59.9 °F 48.9 °F 30.26 in South 2.2 mph -999.0 mph 67 % 0 in
02:09 59.4 °F 48.4 °F 30.26 in Calm   -999.0 mph 67 % 0 in
02:25 59.0 °F 48.8 °F 30.26 in Calm   -999.0 mph 69 % 0 in
02:40 58.5 °F 48.8 °F 30.26 in Calm   -999.0 mph 70 % 0 in
02:55 58.1 °F 49.9 °F 30.26 in Calm   -999.0 mph 74 % 0 in
03:10 57.7 °F 49.8 °F 30.26 in Calm   -999.0 mph 75 % 0 in
03:25 57.4 °F 49.5 °F 30.26 in Calm   -999.0 mph 75 % 0 in
03:41 57.2 °F 49.7 °F 30.26 in Calm   -999.0 mph 76 % 0 in
03:56 57.0 °F 50.9 °F 30.26 in SSW 1.1 mph -999.0 mph 80 % 0 in
04:11 56.8 °F 50.0 °F 30.26 in Calm   -999.0 mph 78 % 0 in
04:26 56.5 °F 50.4 °F 30.26 in Calm   -999.0 mph 80 % 0 in
04:42 56.5 °F 50.4 °F 30.26 in Calm   -999.0 mph 80 % 0 in
04:57 56.3 °F 50.5 °F 30.26 in Calm   -999.0 mph 81 % 0 in
05:12 56.3 °F 51.2 °F 30.26 in Calm   -999.0 mph 83 % 0 in
05:27 55.8 °F 49.4 °F 30.26 in SSE 1.1 mph -999.0 mph 79 % 0 in
05:42 55.4 °F 50.0 °F 30.26 in Calm   -999.0 mph 82 % 0 in
05:58 55.4 °F 50.3 °F 30.27 in Calm   -999.0 mph 83 % 0 in
06:13 55.4 °F 50.6 °F 30.27 in Calm   -999.0 mph 84 % 0 in
06:28 55.2 °F 50.8 °F 30.26 in Calm   -999.0 mph 85 % 0 in
06:43 55.8 °F 51.4 °F 30.26 in Calm   -999.0 mph 85 % 0 in
06:58 55.6 °F 50.5 °F 30.27 in Calm   -999.0 mph 83 % 0 in
07:14 55.9 °F 51.1 °F 30.27 in Calm   -999.0 mph 84 % 0 in
07:29 55.9 °F 51.5 °F 30.27 in Calm   -999.0 mph 85 % 0 in
07:44 56.8 °F 52.3 °F 30.27 in Calm   -999.0 mph 85 % 0 in
07:59 57.7 °F 53.2 °F 30.27 in Calm   -999.0 mph 85 % 0 in
08:14 59.2 °F 54.4 °F 30.27 in NW 1.1 mph -999.0 mph 84 % 0 in
08:30 61.7 °F 56.8 °F 30.28 in Calm   -999.0 mph 84 % 0 in
08:45 64.2 °F 56.8 °F 30.27 in Calm   -999.0 mph 77 % 0 in
09:00 66.9 °F 56.4 °F 30.27 in Calm   -999.0 mph 69 % 0 in
09:15 69.4 °F 55.8 °F 30.27 in South 2.2 mph -999.0 mph 62 % 0 in
09:31 70.7 °F 55.2 °F 30.27 in West 2.7 mph -999.0 mph 58 % 0 in
09:46 72.1 °F 54.5 °F 30.27 in WNW 2.7 mph -999.0 mph 54 % 0 in
10:01 72.7 °F 57.1 °F 30.27 in West 1.1 mph -999.0 mph 58 % 0 in
10:16 73.6 °F 56.4 °F 30.27 in Calm   -999.0 mph 55 % 0 in
10:31 74.3 °F 56.6 °F 30.27 in NW 2.7 mph -999.0 mph 54 % 0 in
10:47 75.6 °F 56.7 °F 30.27 in SSW 3.7 mph -999.0 mph 52 % 0 in
11:02 77.5 °F 55.7 °F 30.27 in SE 2.2 mph -999.0 mph 47 % 0 in
11:17 78.4 °F 54.1 °F 30.28 in NE 3.2 mph -999.0 mph 43 % 0 in
11:33 79.5 °F 55.1 °F 30.27 in NW 4.2 mph -999.0 mph 43 % 0 in
11:48 80.4 °F 55.9 °F 30.27 in WNW 2.2 mph -999.0 mph 43 % 0 in
12:04 80.4 °F 55.9 °F 30.27 in WNW 2.7 mph -999.0 mph 43 % 0 in
12:19 81.3 °F 56.7 °F 30.27 in North 5.8 mph -999.0 mph 43 % 0 in
12:35 82.2 °F 56.2 °F 30.26 in NNW 4.2 mph -999.0 mph 41 % 0 in
12:50 80.1 °F 55.6 °F 30.26 in NNW 4.7 mph -999.0 mph 43 % 0 in
13:05 80.8 °F 56.2 °F 30.26 in NNW 4.2 mph -999.0 mph 43 % 0 in
13:20 80.4 °F 55.9 °F 30.26 in NNE 3.2 mph -999.0 mph 43 % 0 in
13:36 81.7 °F 55.0 °F 30.26 in South 1.7 mph -999.0 mph 40 % 0 in
13:51 78.8 °F 53.8 °F 30.26 in East 1.1 mph -999.0 mph 42 % 0 in
14:06 78.8 °F 55.1 °F 30.26 in WNW 3.2 mph -999.0 mph 44 % 0 in
14:21 78.1 °F 55.0 °F 30.26 in West 2.2 mph -999.0 mph 45 % 0 in
14:37 77.4 °F 55.0 °F 30.25 in NNW 2.2 mph -999.0 mph 46 % 0 in
14:52 79.5 °F 55.1 °F 30.25 in NW 4.2 mph -999.0 mph 43 % 0 in
15:07 82.6 °F 55.8 °F 30.24 in NNW 4.2 mph -999.0 mph 40 % 0 in
15:22 82.8 °F 55.3 °F 30.24 in NNW 5.3 mph -999.0 mph 39 % 0 in
15:38 82.4 °F 54.3 °F 30.24 in East 1.1 mph -999.0 mph 38 % 0 in
15:53 82.6 °F 55.8 °F 30.24 in SW 2.7 mph -999.0 mph 40 % 0 in
16:08 82.2 °F 54.8 °F 30.23 in SW 1.7 mph -999.0 mph 39 % 0 in
16:23 81.7 °F 55.0 °F 30.23 in WNW 7.8 mph -999.0 mph 40 % 0 in
16:39 80.4 °F 55.2 °F 30.23 in West 7.8 mph -999.0 mph 42 % 0 in
16:54 81.1 °F 55.2 °F 30.23 in North 2.7 mph -999.0 mph 41 % 0 in
17:09 82.8 °F 54.6 °F 30.23 in East 5.3 mph -999.0 mph 38 % 0 in
17:24 80.6 °F 54.1 °F 30.23 in NNW 3.2 mph -999.0 mph 40 % 0 in
17:39 84.6 °F 56.2 °F 30.22 in NW 4.2 mph -999.0 mph 38 % 0 in
17:55 82.0 °F 55.3 °F 30.22 in NW 3.2 mph -999.0 mph 40 % 0 in
18:10 82.0 °F 55.3 °F 30.22 in Calm   -999.0 mph 40 % 0 in
18:25 81.9 °F 55.9 °F 30.22 in NNW 2.7 mph -999.0 mph 41 % 0 in
18:40 78.3 °F 55.2 °F 30.22 in NW 4.7 mph -999.0 mph 45 % 0 in
18:55 74.8 °F 54.9 °F 30.22 in NW 3.7 mph -999.0 mph 50 % 0 in
19:11 72.0 °F 53.9 °F 30.22 in NW 3.2 mph -999.0 mph 53 % 0 in
19:26 70.7 °F 53.7 °F 30.22 in Calm   -999.0 mph 55 % 0 in
19:41 69.6 °F 53.2 °F 30.23 in Calm   -999.0 mph 56 % 0 in
19:56 68.5 °F 52.7 °F 30.23 in Calm   -999.0 mph 57 % 0 in
20:11 67.3 °F 52.5 °F 30.23 in Calm   -999.0 mph 59 % 0 in
20:27 66.2 °F 52.4 °F 30.23 in Calm   -999.0 mph 61 % 0 in
20:42 65.1 °F 52.2 °F 30.23 in Calm   -999.0 mph 63 % 0 in
20:57 64.4 °F 51.5 °F 30.24 in Calm   -999.0 mph 63 % 0 in
21:12 63.3 °F 51.3 °F 30.24 in South 1.7 mph -999.0 mph 65 % 0 in
21:27 62.8 °F 51.3 °F 30.24 in SSW 2.2 mph -999.0 mph 66 % 0 in
21:43 62.1 °F 50.2 °F 30.24 in SSE 1.1 mph -999.0 mph 65 % 0 in
21:58 61.3 °F 50.3 °F 30.24 in South 1.7 mph -999.0 mph 67 % 0 in
22:13 61.0 °F 50.4 °F 30.24 in SSE 1.7 mph -999.0 mph 68 % 0 in
22:28 60.3 °F 50.5 °F 30.24 in Calm   -999.0 mph 70 % 0 in
22:44 59.7 °F 49.9 °F 30.24 in Calm   -999.0 mph 70 % 0 in
22:59 59.2 °F 49.4 °F 30.24 in SSE 1.7 mph -999.0 mph 70 % 0 in
23:14 58.8 °F 49.4 °F 30.24 in Calm   -999.0 mph 71 % 0 in
23:29 58.3 °F 48.9 °F 30.24 in Calm   -999.0 mph 71 % 0 in
23:44 58.1 °F 48.7 °F 30.25 in South 1.7 mph -999.0 mph 71 % 0 in
Big Bear CA Weather
Compliments of Weather Underground - 1.5 mb